Time;durP1;ratioP1;P1;durP2;ratioP2;P2;SDS_P1;SDS_P2;PMS_P1;PMS_P2;Temp;Humidity;BMP_temperature;BMP_pressure;BME280_temperature;BME280_humidity;BME280_pressure;Samples;Min_cycle;Max_cycle;Signal;HPM_P1;HPM_P2
2021/07/10 00:00:50;;;;;;;2.53;1.73;;;18.10;80.50;;;21.01;66.51;101911.19;5003232;28;97707;-73
2021/07/10 00:03:20;;;;;;;4.28;3.10;;;18.00;80.40;;;20.92;66.95;101902.34;4998279;28;97179;-73
2021/07/10 00:05:49;;;;;;;3.30;2.15;;;18.00;80.50;;;20.79;67.00;101898.03;4998103;28;96944;-73
2021/07/10 00:08:18;;;;;;;4.35;2.15;;;17.90;80.60;;;20.77;67.59;101903.03;5001790;28;97802;-73
2021/07/10 00:10:47;;;;;;;1.15;0.52;;;17.80;80.60;;;20.67;67.63;101892.56;5014035;27;97107;-73
2021/07/10 00:13:15;;;;;;;1.77;1.00;;;17.80;81.30;;;20.57;68.19;101891.44;4999771;28;96966;-73
2021/07/10 00:15:44;;;;;;;3.72;1.92;;;17.80;80.70;;;20.53;68.50;101887.81;4997189;28;96663;-73
2021/07/10 00:18:13;;;;;;;3.25;1.05;;;17.70;80.60;;;20.47;67.80;101889.94;4994877;28;96920;-73
2021/07/10 00:20:44;;;;;;;5.03;1.90;;;17.60;80.60;;;20.31;68.65;101883.59;5003882;28;97733;-73
2021/07/10 00:23:13;;;;;;;4.30;1.73;;;17.50;80.70;;;20.22;68.59;101888.34;5037831;27;97483;-73
2021/07/10 00:25:42;;;;;;;1.50;0.57;;;17.50;80.90;;;20.26;68.37;101886.53;5003941;28;97300;-74
2021/07/10 00:28:11;;;;;;;3.85;1.30;;;17.40;81.00;;;20.22;67.84;101879.38;4998708;28;96881;-74
2021/07/10 00:30:40;;;;;;;1.95;1.48;;;17.40;81.00;;;20.09;68.07;101872.31;5000512;28;97842;-74
2021/07/10 00:33:08;;;;;;;1.77;1.65;;;17.30;80.90;;;20.05;68.63;101876.84;5022644;27;97026;-73
2021/07/10 00:35:39;;;;;;;2.97;1.50;;;17.30;81.00;;;20.07;68.37;101877.31;5002003;28;97215;-74
2021/07/10 00:38:09;;;;;;;1.30;1.20;;;17.20;81.70;;;20.12;68.03;101863.50;5004359;28;97878;-74
2021/07/10 00:40:38;;;;;;;2.40;1.60;;;17.20;81.20;;;20.06;67.51;101862.13;5004875;28;97724;-74
2021/07/10 00:43:07;;;;;;;1.25;0.90;;;17.10;81.20;;;20.02;68.10;101864.72;4998702;28;96789;-73
2021/07/10 00:45:35;;;;;;;1.95;1.70;;;17.00;81.30;;;19.94;67.89;101851.19;5032014;27;96826;-73
2021/07/10 00:48:06;;;;;;;7.00;2.05;;;17.00;81.30;;;19.91;68.03;101849.91;5001147;28;97445;-73
2021/07/10 00:50:34;;;;;;;0.45;0.45;;;17.00;81.40;;;19.85;68.12;101842.34;5001516;28;97813;-73
2021/07/10 00:53:05;;;;;;;2.17;1.80;;;17.00;81.40;;;19.88;68.52;101845.16;4998716;28;97590;-73
2021/07/10 00:55:36;;;;;;;1.45;1.35;;;16.90;81.40;;;19.79;68.48;101835.50;4997215;28;96699;-73
2021/07/10 00:58:05;;;;;;;1.55;1.00;;;16.90;81.30;;;19.79;67.70;101847.19;4998814;28;98057;-73
2021/07/10 01:00:37;;;;;;;3.60;1.75;;;16.90;81.40;;;19.75;67.89;101840.03;5001647;28;96880;-73
2021/07/10 01:03:07;;;;;;;12.55;2.25;;;16.80;81.30;;;19.75;67.73;101838.09;4998580;28;97194;-73
2021/07/10 01:05:37;;;;;;;1.60;1.00;;;16.80;81.40;;;19.74;67.92;101838.44;5003632;28;97003;-73
2021/07/10 01:08:07;;;;;;;1.45;1.27;;;16.80;81.40;;;19.73;68.32;101825.97;4998770;28;96979;-73
2021/07/10 01:10:37;;;;;;;2.13;1.20;;;16.80;81.40;;;19.66;68.22;101826.50;5003700;28;97747;-73
2021/07/10 01:13:07;;;;;;;3.40;0.98;;;16.70;81.30;;;19.65;68.32;101829.56;5000697;28;96768;-73
2021/07/10 01:15:36;;;;;;;1.95;1.40;;;16.70;81.30;;;19.67;67.56;101827.31;4999792;28;96906;-73
2021/07/10 01:18:06;;;;;;;1.77;1.50;;;16.70;81.40;;;19.63;67.91;101821.75;5001471;28;97852;-73
2021/07/10 01:20:47;;;;;;;0.47;0.47;;;16.70;81.40;;;19.56;67.76;101826.94;5031896;27;97235;-73
2021/07/10 01:23:16;;;;;;;0.95;0.90;;;16.60;81.40;;;19.49;68.11;101829.41;5001715;28;96753;-73
2021/07/10 01:25:46;;;;;;;1.33;1.23;;;16.60;81.30;;;19.54;67.93;101823.75;5003785;28;97078;-73
2021/07/10 01:28:18;;;;;;;2.65;2.40;;;16.60;81.40;;;19.52;68.33;101827.97;5001928;28;98883;-73
2021/07/10 01:30:50;;;;;;;1.52;1.27;;;16.60;81.40;;;19.45;67.89;101823.06;5031690;27;97748;-73
2021/07/10 01:33:19;;;;;;;1.02;0.98;;;16.50;81.30;;;19.44;67.93;101823.38;5000061;28;97389;-73
2021/07/10 01:35:50;;;;;;;1.95;0.52;;;16.50;81.30;;;19.40;67.95;101826.00;5000858;28;96996;-73
2021/07/10 01:38:19;;;;;;;1.55;0.63;;;16.50;81.40;;;19.42;67.85;101831.06;5018516;27;96901;-73
2021/07/10 01:40:48;;;;;;;2.15;1.05;;;16.40;81.30;;;19.45;67.53;101819.53;4998060;28;97935;-73
2021/07/10 01:43:16;;;;;;;8.20;1.40;;;16.50;81.40;;;19.46;67.37;101819.22;5001591;28;97096;-73
2021/07/10 01:45:45;;;;;;;4.68;2.83;;;16.40;81.30;;;19.46;67.70;101811.06;5011844;27;97413;-73
2021/07/10 01:48:14;;;;;;;6.53;2.65;;;16.40;81.40;;;19.41;67.62;101807.75;5000488;28;97910;-73
2021/07/10 01:50:47;;;;;;;1.38;0.63;;;16.40;81.40;;;19.35;67.35;101809.84;5000532;28;98190;-73
2021/07/10 01:53:18;;;;;;;1.42;1.33;;;16.30;81.30;;;19.28;67.93;101803.41;5001676;28;98512;-73
2021/07/10 01:55:46;;;;;;;6.65;3.35;;;16.30;81.40;;;19.22;67.99;101802.78;5002772;28;96969;-73
2021/07/10 01:58:15;;;;;;;3.60;2.30;;;16.30;81.50;;;19.23;67.93;101809.03;4999482;28;98084;-73
2021/07/10 02:00:46;;;;;;;2.28;1.67;;;16.30;81.50;;;19.22;68.17;101810.94;5018867;27;97753;-73
2021/07/10 02:03:16;;;;;;;1.60;1.23;;;16.30;81.50;;;19.14;67.90;101808.25;5001682;28;96931;-73
2021/07/10 02:05:45;;;;;;;2.20;1.38;;;16.20;81.50;;;19.12;67.63;101807.81;5002501;28;97092;-73
2021/07/10 02:08:14;;;;;;;2.10;1.40;;;16.20;81.50;;;19.06;68.13;101807.22;5000699;28;97346;-73
2021/07/10 02:10:44;;;;;;;0.85;0.85;;;16.10;81.50;;;18.99;67.96;101803.44;4999986;28;98184;-72
2021/07/10 02:13:14;;;;;;;1.50;1.40;;;16.10;81.50;;;18.91;68.33;101795.38;5003780;28;97225;-73
2021/07/10 02:15:43;;;;;;;1.30;1.25;;;16.10;81.60;;;18.87;68.40;101803.38;5001280;28;96826;-73
2021/07/10 02:18:12;;;;;;;1.27;0.60;;;16.00;81.60;;;18.83;68.63;101798.94;4998874;28;96934;-73
2021/07/10 02:20:42;;;;;;;1.20;0.98;;;16.00;81.60;;;18.82;68.53;101805.50;4996957;28;98581;-73
2021/07/10 02:23:11;;;;;;;1.98;1.85;;;16.00;81.70;;;18.81;68.12;101804.69;4998828;28;97506;-73
2021/07/10 02:25:39;;;;;;;4.38;2.45;;;15.90;81.70;;;18.83;68.34;101807.09;5000165;28;96938;-73
2021/07/10 02:28:09;;;;;;;0.60;0.32;;;16.00;81.70;;;18.88;68.27;101807.66;5011190;27;97848;-73
2021/07/10 02:30:38;;;;;;;5.85;1.70;;;15.90;81.70;;;18.91;68.17;101803.50;4998656;28;97743;-73
2021/07/10 02:33:07;;;;;;;0.52;0.50;;;15.90;81.60;;;18.86;67.97;101807.22;4996756;28;96818;-73
2021/07/10 02:35:36;;;;;;;5.18;1.67;;;15.90;81.60;;;18.90;68.15;101813.56;5003861;28;97043;-73
2021/07/10 02:38:06;;;;;;;2.67;0.75;;;15.90;81.70;;;18.99;67.87;101811.59;4995570;28;97878;-73
2021/07/10 02:40:35;;;;;;;2.92;1.90;;;15.90;81.80;;;19.10;67.75;101807.34;4996754;28;97701;-73
2021/07/10 02:43:05;;;;;;;1.45;1.35;;;16.00;81.80;;;19.17;67.56;101799.47;5003238;28;97957;-73
2021/07/10 02:45:38;;;;;;;8.82;1.98;;;16.00;81.70;;;19.25;67.26;101793.19;5018498;27;96925;-73
2021/07/10 02:48:07;;;;;;;1.52;0.85;;;16.10;81.70;;;19.29;67.47;101792.19;4999920;28;97099;-73
2021/07/10 02:50:36;;;;;;;2.50;1.40;;;16.10;81.60;;;19.33;67.48;101784.16;5014106;27;99515;-73
2021/07/10 02:53:05;;;;;;;1.85;1.75;;;16.20;81.50;;;19.36;67.06;101778.84;4999989;28;97010;-73
2021/07/10 02:55:36;;;;;;;3.05;1.48;;;16.20;81.40;;;19.38;67.34;101782.03;4999183;28;97325;-73
2021/07/10 02:58:05;;;;;;;2.47;1.30;;;16.20;81.30;;;19.38;67.06;101771.16;5003237;28;98050;-73
2021/07/10 03:00:35;;;;;;;1.08;0.80;;;16.30;81.30;;;19.36;67.01;101778.06;5001664;28;97682;-74
2021/07/10 03:03:05;;;;;;;4.70;2.38;;;16.30;81.20;;;19.34;66.93;101774.88;5002727;28;97968;-74
2021/07/10 03:05:34;;;;;;;4.28;1.40;;;16.30;81.10;;;19.37;67.52;101785.06;5001392;28;97033;-74
2021/07/10 03:08:06;;;;;;;1.88;1.67;;;16.30;81.10;;;19.32;66.98;101779.84;4987204;28;96902;-74
2021/07/10 03:10:35;;;;;;;4.32;1.77;;;16.30;81.10;;;19.25;67.51;101779.59;4999619;28;97859;-73
2021/07/10 03:13:05;;;;;;;2.15;1.83;;;16.20;81.10;;;19.22;67.58;101772.91;5000414;28;96798;-74
2021/07/10 03:15:35;;;;;;;3.05;2.05;;;16.20;81.10;;;19.20;67.43;101766.19;4997411;28;97756;-73
2021/07/10 03:18:04;;;;;;;5.07;1.52;;;16.20;81.00;;;19.12;67.86;101767.06;5000743;28;98061;-74
2021/07/10 03:20:33;;;;;;;2.75;1.65;;;16.20;81.20;;;19.15;67.65;101766.38;5002269;28;97752;-73
2021/07/10 03:23:03;;;;;;;3.63;1.83;;;16.20;81.30;;;19.14;67.55;101760.16;5002787;28;96938;-73
2021/07/10 03:25:32;;;;;;;0.93;0.93;;;16.20;81.30;;;19.14;67.74;101760.16;4998168;28;97352;-73
2021/07/10 03:28:03;;;;;;;1.27;0.55;;;16.20;81.30;;;19.21;67.25;101755.00;5016322;27;98091;-73
2021/07/10 03:30:32;;;;;;;11.05;2.28;;;16.20;81.40;;;19.29;67.80;101756.06;4998510;28;96787;-73
2021/07/10 03:33:05;;;;;;;1.77;1.67;;;16.20;81.40;;;19.40;67.26;101754.50;4987255;28;96869;-73
2021/07/10 03:35:34;;;;;;;2.55;1.48;;;16.20;81.40;;;19.44;67.08;101755.41;4997080;28;96938;-73
2021/07/10 03:38:03;;;;;;;5.60;2.70;;;16.20;81.30;;;19.47;67.03;101754.75;4998028;28;97891;-73
2021/07/10 03:40:32;;;;;;;5.43;2.03;;;16.30;81.30;;;19.52;66.54;101760.00;4997069;28;97095;-73
2021/07/10 03:43:04;;;;;;;3.10;1.92;;;16.30;81.20;;;19.54;67.08;101755.78;5011534;27;96883;-73
2021/07/10 03:45:32;;;;;;;1.50;0.77;;;16.40;81.30;;;19.55;66.84;101753.88;5013190;28;97124;-73
2021/07/10 03:48:04;;;;;;;1.58;1.27;;;16.40;81.20;;;19.54;67.05;101752.28;5003212;28;97089;-73
2021/07/10 03:50:32;;;;;;;6.68;2.17;;;16.40;81.10;;;19.56;66.77;101756.25;4993246;28;98817;-73
2021/07/10 03:53:03;;;;;;;3.03;2.83;;;16.40;81.10;;;19.65;66.57;101750.72;5005007;28;96834;-73
2021/07/10 03:55:33;;;;;;;2.53;2.05;;;16.40;81.10;;;19.73;66.21;101755.25;5000156;28;96783;-73
2021/07/10 03:58:03;;;;;;;2.47;1.02;;;16.40;81.00;;;19.63;66.44;101750.25;5018489;27;98003;-73
2021/07/10 04:00:32;;;;;;;3.53;1.92;;;16.50;81.10;;;19.74;66.64;101751.41;5001365;28;97617;-73
2021/07/10 04:03:04;;;;;;;5.45;2.72;;;16.50;81.10;;;19.77;66.66;101745.28;5018284;28;97973;-73
2021/07/10 04:05:32;;;;;;;3.03;1.75;;;16.50;81.00;;;19.82;66.33;101745.09;5001700;28;96981;-73
2021/07/10 04:08:03;;;;;;;0.82;0.80;;;16.60;81.00;;;19.86;66.58;101744.06;5002485;28;96857;-73
2021/07/10 04:10:32;;;;;;;3.47;2.08;;;16.60;80.90;;;19.89;66.69;101743.38;5002789;28;97654;-73
2021/07/10 04:13:01;;;;;;;1.88;1.70;;;16.60;80.90;;;19.96;65.88;101742.81;5001745;28;97033;-73
2021/07/10 04:15:31;;;;;;;3.97;2.25;;;16.60;80.90;;;20.02;65.59;101742.28;4999844;28;97472;-73
2021/07/10 04:17:59;;;;;;;0.93;0.93;;;16.70;80.90;;;20.09;65.43;101741.69;4998520;28;97092;-73
2021/07/10 04:20:32;;;;;;;2.15;1.75;;;16.70;80.80;;;20.12;65.11;101741.06;5002331;28;97732;-73
2021/07/10 04:23:05;;;;;;;4.90;2.00;;;16.80;80.70;;;20.18;65.67;101751.34;5006772;28;96662;-74
2021/07/10 04:25:34;;;;;;;3.42;1.45;;;16.90;80.60;;;20.22;65.00;101746.03;4997931;28;96902;-73
2021/07/10 04:28:04;;;;;;;1.38;1.27;;;16.90;80.50;;;20.26;65.74;101746.91;5000518;28;97961;-73
2021/07/10 04:30:32;;;;;;;2.15;1.85;;;16.90;81.00;;;20.36;65.81;101741.00;5000815;28;96924;-73
2021/07/10 04:33:01;;;;;;;6.93;1.95;;;17.00;80.30;;;20.43;64.67;101735.81;5002412;28;96903;-73
2021/07/10 04:35:33;;;;;;;3.22;2.20;;;17.10;80.10;;;20.48;64.53;101741.00;5004681;28;97053;-74
2021/07/10 04:38:03;;;;;;;1.73;1.33;;;17.10;80.00;;;20.56;64.99;101735.41;4998259;28;97906;-73
2021/07/10 04:40:32;;;;;;;1.20;1.02;;;17.20;79.80;;;20.68;64.65;101749.78;4996789;28;97698;-73
2021/07/10 04:43:01;;;;;;;2.80;2.60;;;17.30;79.60;;;20.84;64.79;101742.53;4999043;28;96881;-73
2021/07/10 04:45:31;;;;;;;3.45;2.83;;;17.40;79.50;;;21.16;63.81;101735.22;4998758;28;97017;-73
2021/07/10 04:47:59;;;;;;;1.02;1.02;;;17.60;79.30;;;21.38;62.97;101746.38;5002907;28;98334;-73
2021/07/10 04:50:30;;;;;;;2.25;1.08;;;17.70;79.00;;;21.68;62.73;101747.59;4998537;28;97723;-74
2021/07/10 04:53:00;;;;;;;10.23;2.97;;;17.90;78.80;;;22.09;62.24;101738.84;5000247;28;96833;-73
2021/07/10 04:55:31;;;;;;;2.05;1.67;;;18.20;78.50;;;22.34;61.47;101742.94;4997843;28;97014;-73
2021/07/10 04:58:00;;;;;;;7.53;1.42;;;18.50;78.20;;;22.38;61.88;101747.38;4974028;28;100046;-73
2021/07/10 05:00:31;;;;;;;4.45;2.15;;;18.60;77.80;;;22.16;62.84;101743.69;5000416;28;97679;-73
2021/07/10 05:03:00;;;;;;;18.75;3.80;;;18.60;77.80;;;22.07;63.09;101746.59;5018609;27;96845;-74
2021/07/10 05:05:30;;;;;;;5.25;2.22;;;18.60;78.00;;;22.19;62.50;101730.09;5033644;27;97018;-73
2021/07/10 05:08:02;;;;;;;8.38;3.92;;;18.70;78.10;;;22.32;62.39;101731.59;4996526;28;98999;-73
2021/07/10 05:10:32;;;;;;;4.87;2.63;;;18.70;78.00;;;22.44;62.35;101739.69;4989623;28;97530;-73
2021/07/10 05:13:01;;;;;;;5.68;3.42;;;18.80;78.00;;;22.41;62.63;101732.19;5003578;28;98205;-73
2021/07/10 05:15:32;;;;;;;9.65;3.35;;;18.80;77.90;;;22.53;62.49;101735.59;5000991;28;96848;-74
2021/07/10 05:18:01;;;;;;;4.18;2.28;;;19.00;77.90;;;22.64;62.39;101730.38;5005135;28;97794;-73
2021/07/10 05:20:33;;;;;;;3.45;2.17;;;19.10;77.80;;;22.83;62.23;101735.88;5003312;28;96792;-73
2021/07/10 05:23:04;;;;;;;11.27;3.83;;;19.20;77.60;;;22.94;61.98;101729.44;5002357;28;96781;-73
2021/07/10 05:25:33;;;;;;;3.80;2.35;;;19.30;78.10;;;23.06;61.96;101721.09;5006354;28;96875;-73
2021/07/10 05:28:03;;;;;;;1.65;1.52;;;19.40;77.20;;;23.23;61.87;101725.34;5000780;28;97989;-73
2021/07/10 05:30:32;;;;;;;3.13;2.53;;;19.60;77.10;;;23.35;61.86;101727.91;4999336;28;97679;-73
2021/07/10 05:33:01;;;;;;;3.90;1.90;;;19.80;77.00;;;23.39;61.76;101720.56;5004682;28;97886;-73
2021/07/10 05:35:33;;;;;;;3.20;2.07;;;19.80;76.80;;;23.69;61.69;101726.94;4999079;28;97362;-74
2021/07/10 05:38:04;;;;;;;1.25;0.90;;;20.00;76.90;;;26.18;54.74;101719.47;5001153;28;97883;-74
2021/07/10 05:40:33;;;;;;;2.28;1.15;;;20.20;76.80;;;26.79;54.01;101719.41;4999516;28;97627;-74
2021/07/10 05:43:03;;;;;;;3.90;1.60;;;20.70;76.80;;;26.74;55.16;101724.50;5001145;28;96892;-74
2021/07/10 05:45:32;;;;;;;2.47;2.05;;;21.20;76.30;;;26.90;55.76;101724.97;5016489;27;97007;-74
2021/07/10 05:48:01;;;;;;;5.07;2.25;;;21.80;75.90;;;27.37;56.27;101717.25;5001542;28;97005;-74
2021/07/10 05:50:32;;;;;;;2.40;2.03;;;22.40;75.70;;;28.31;54.88;101722.78;4999242;28;97814;-74
2021/07/10 05:53:00;;;;;;;2.70;1.58;;;22.80;75.80;;;28.35;55.93;101720.81;5001918;28;96870;-74
2021/07/10 05:55:32;;;;;;;1.65;1.55;;;23.50;75.30;;;29.16;55.44;101710.25;4998343;28;97049;-74
2021/07/10 05:58:01;;;;;;;3.70;1.85;;;24.20;74.40;;;30.91;52.02;101701.06;4998994;28;97851;-74
2021/07/10 06:00:33;;;;;;;1.90;1.65;;;24.80;74.00;;;31.70;50.91;101711.41;5002142;28;97607;-74
2021/07/10 06:03:06;;;;;;;4.25;2.33;;;25.50;73.40;;;31.09;53.19;101712.69;4999708;28;96955;-74
2021/07/10 06:05:37;;;;;;;;;;;25.90;72.90;;;30.54;54.61;101712.19;5003932;28;96736;-74
2021/07/10 06:08:07;;;;;;;6.57;2.40;;;26.10;72.30;;;30.07;56.27;101706.78;4998299;28;98112;-74
2021/07/10 06:10:37;;;;;;;5.25;2.33;;;26.00;72.70;;;31.30;53.66;101698.53;4997981;28;96938;-74
2021/07/10 06:13:06;;;;;;;4.65;1.85;;;26.60;72.10;;;31.89;52.91;101707.88;4997427;28;97583;-74
2021/07/10 06:15:34;;;;;;;5.20;2.40;;;27.10;71.10;;;31.03;55.19;101708.78;5012608;27;97090;-74
2021/07/10 06:18:03;;;;;;;8.75;2.80;;;27.10;71.40;;;29.76;58.46;101699.56;5016093;27;98546;-74
2021/07/10 06:20:34;;;;;;;24.67;2.78;;;26.40;72.30;;;29.35;59.37;101709.69;4996238;28;96832;-74
2021/07/10 06:23:05;;;;;;;4.90;3.25;;;26.00;73.50;;;28.98;59.99;101704.03;4995053;28;97036;-74
2021/07/10 06:25:38;;;;;;;4.55;1.33;;;25.60;73.70;;;28.71;60.25;101705.69;4997810;28;96731;-74
2021/07/10 06:28:08;;;;;;;2.03;1.67;;;25.30;74.30;;;29.49;58.30;101704.13;5004377;28;97260;-74
2021/07/10 06:30:38;;;;;;;3.60;1.10;;;25.40;74.60;;;29.31;58.68;101708.94;4996128;28;96797;-74
2021/07/10 06:33:06;;;;;;;2.92;2.38;;;25.40;74.20;;;29.35;58.45;101713.25;5000454;28;96832;-74
2021/07/10 06:35:35;;;;;;;2.92;1.55;;;25.30;74.20;;;29.19;58.47;101714.94;4985315;28;97543;-74
2021/07/10 06:38:05;;;;;;;5.28;1.52;;;25.20;74.20;;;29.00;58.86;101712.69;5000654;28;97924;-74
2021/07/10 06:40:36;;;;;;;4.15;2.22;;;25.10;74.20;;;28.98;58.66;101720.59;5016758;27;97629;-74
2021/07/10 06:43:05;;;;;;;2.17;1.88;;;25.10;74.10;;;28.72;59.25;101715.53;4996234;28;97018;-74
2021/07/10 06:45:33;;;;;;;3.00;1.55;;;25.00;74.20;;;29.31;57.87;101718.03;4997878;28;96934;-74
2021/07/10 06:48:04;;;;;;;1.40;0.68;;;25.20;73.80;;;31.69;52.53;101685.66;5002193;28;97397;-74
2021/07/10 06:50:33;;;;;;;2.00;1.58;;;26.20;73.10;;;34.01;48.14;101696.09;4999400;28;96811;-74
2021/07/10 06:53:04;;;;;;;5.63;2.53;;;27.60;71.00;;;34.74;47.41;101708.75;4997283;28;96984;-74
2021/07/10 06:55:33;;;;;;;1.77;1.15;;;28.60;69.30;;;37.02;44.28;101682.16;5014164;27;97081;-75
2021/07/10 06:58:04;;;;;;;2.92;2.60;;;30.10;68.10;;;38.11;42.97;101693.91;5001749;28;96908;-75
2021/07/10 07:00:33;;;;;;;5.00;1.73;;;31.30;66.50;;;38.48;44.23;101678.66;4998341;28;96872;-75
2021/07/10 07:03:01;;;;;;;1.42;1.17;;;32.10;66.10;;;40.25;41.33;101664.59;4999874;28;97335;-73
2021/07/10 07:05:31;;;;;;;8.38;2.78;;;33.30;65.10;;;41.64;40.32;101686.78;5000231;28;96878;-73
2021/07/10 07:08:00;;;;;;;4.60;1.75;;;34.50;64.20;;;42.41;39.77;101673.56;5015599;28;97895;-74
2021/07/10 07:10:31;;;;;;;3.20;1.63;;;35.40;63.80;;;43.52;39.33;101603.31;4997962;28;97008;-74
2021/07/10 07:13:01;;;;;;;2.33;1.50;;;36.30;63.50;;;44.15;38.87;101615.84;4999583;28;96908;-73
2021/07/10 07:15:33;;;;;;;3.70;2.47;;;37.00;63.10;;;44.36;39.22;101631.25;5027475;27;96794;-75
2021/07/10 07:18:04;;;;;;;4.07;1.75;;;37.50;62.10;;;43.24;42.17;101679.44;5001373;28;96834;-73
2021/07/10 07:20:34;;;;;;;4.53;1.55;;;37.40;63.00;;;40.93;46.88;101674.47;4999090;28;97704;-73
2021/07/10 07:23:05;;;;;;;15.35;1.27;;;36.50;65.10;;;39.73;49.30;101662.53;4995728;28;97180;-75
2021/07/10 07:25:34;;;;;;;12.57;3.03;;;35.60;66.60;;;39.57;49.07;101672.13;4995563;28;96991;-73
2021/07/10 07:28:06;;;;;;;9.15;2.05;;;35.00;67.60;;;39.85;48.86;101672.72;5016034;27;97882;-73
2021/07/10 07:30:36;;;;;;;4.63;1.60;;;34.80;67.60;;;39.95;47.96;101666.53;5001545;28;96793;-75
2021/07/10 07:33:07;;;;;;;8.27;2.88;;;34.60;67.70;;;38.92;50.10;101676.97;4997906;28;96934;-73
2021/07/10 07:35:35;;;;;;;3.97;1.95;;;34.30;68.20;;;38.32;51.40;101675.41;5002078;28;96760;-74
2021/07/10 07:38:04;;;;;;;2.67;2.10;;;33.80;69.00;;;39.48;47.97;101666.59;4985072;28;97590;-74
2021/07/10 07:40:33;;;;;;;5.45;2.55;;;33.80;69.10;;;39.76;47.58;101669.97;5014773;27;98754;-74
2021/07/10 07:43:05;;;;;;;20.88;1.63;;;33.90;68.50;;;40.36;46.46;101664.78;5006615;28;97095;-74
2021/07/10 07:45:34;;;;;;;7.57;2.03;;;34.10;69.10;;;40.13;47.22;101674.06;5002806;28;96879;-74
2021/07/10 07:48:07;;;;;;;7.95;3.92;;;34.10;68.70;;;41.03;45.53;101659.03;5003033;28;97853;-75
2021/07/10 07:50:36;;;;;;;3.10;2.03;;;34.30;68.80;;;43.77;40.19;101664.53;4997702;28;96990;-75
2021/07/10 07:53:05;;;;;;;0.85;0.85;;;35.20;68.20;;;45.20;38.07;101666.22;5003108;28;96865;-74
2021/07/10 07:55:34;;;;;;;14.13;1.85;;;36.10;66.50;;;45.70;38.37;101669.66;5030799;27;96829;-74
2021/07/10 07:58:04;;;;;;;4.35;2.40;;;36.90;65.90;;;44.81;39.90;101666.78;5002595;28;97918;-74
2021/07/10 08:00:33;;;;;;;3.33;2.50;;;37.10;65.80;;;41.93;46.89;101675.38;5037091;27;98904;-74
2021/07/10 08:03:06;;;;;;;3.00;2.15;;;36.80;66.20;;;39.78;50.63;101668.22;5002896;28;96714;-74
2021/07/10 08:05:36;;;;;;;9.50;2.28;;;35.90;67.10;;;40.82;47.26;101661.00;5007704;28;97093;-75
2021/07/10 08:08:07;;;;;;;2.80;1.95;;;35.20;68.20;;;43.09;43.04;101658.25;5001358;28;97957;-74
2021/07/10 08:10:36;;;;;;;13.00;2.13;;;35.40;68.30;;;43.13;42.42;101658.81;5000065;28;98056;-74
2021/07/10 08:13:05;;;;;;;7.38;2.38;;;35.80;67.50;;;40.75;48.12;101655.78;5003640;28;96769;-74
2021/07/10 08:15:34;;;;;;;8.82;3.58;;;35.70;67.40;;;38.41;53.22;101659.34;5002675;28;96916;-74
2021/07/10 08:18:05;;;;;;;4.50;2.78;;;34.80;68.10;;;36.83;55.89;101653.34;5019380;28;97492;-74
2021/07/10 08:20:37;;;;;;;3.65;2.38;;;33.80;69.40;;;37.60;52.47;101660.59;5001455;28;97762;-74
2021/07/10 08:23:07;;;;;;;4.25;2.03;;;33.10;70.20;;;40.13;45.94;101648.78;5003672;28;96780;-74
2021/07/10 08:25:36;;;;;;;6.22;2.65;;;33.10;70.70;;;41.56;43.70;101651.84;5003995;28;96968;-74
2021/07/10 08:28:05;;;;;;;5.80;2.05;;;33.60;70.30;;;41.35;44.18;101651.06;5003058;28;99839;-74
2021/07/10 08:30:33;;;;;;;12.70;3.05;;;33.90;69.70;;;41.06;45.41;101643.97;5033196;27;99094;-74
2021/07/10 08:33:05;;;;;;;2.30;1.70;;;34.00;69.70;;;41.06;45.36;101636.34;5007803;28;97022;-74
2021/07/10 08:35:35;;;;;;;3.55;2.10;;;34.00;69.50;;;40.87;46.35;101642.69;4999269;28;97114;-75
2021/07/10 08:38:05;;;;;;;4.55;2.97;;;34.00;69.70;;;41.53;44.21;101644.41;5000753;28;100506;-74
2021/07/10 08:40:33;;;;;;;5.47;1.58;;;34.00;69.70;;;42.80;42.30;101638.06;5000062;28;96936;-74
2021/07/10 08:43:05;;;;;;;7.85;2.60;;;34.30;69.50;;;42.88;41.99;101627.88;4998961;28;97241;-74
2021/07/10 08:45:37;;;;;;;2.88;1.60;;;34.50;69.60;;;44.28;40.10;101616.09;5002100;28;97161;-74
2021/07/10 08:48:07;;;;;;;2.13;1.58;;;34.90;70.30;;;43.57;42.19;101622.34;5003898;28;98098;-74
2021/07/10 08:50:38;;;;;;;5.57;1.55;;;35.30;69.50;;;44.06;41.56;101616.09;5032490;27;97301;-74
2021/07/10 08:53:07;;;;;;;4.18;1.95;;;35.50;69.50;;;44.39;41.70;101616.91;5002643;28;96882;-74
2021/07/10 08:55:36;;;;;;;6.78;2.83;;;35.90;69.30;;;43.79;43.01;101620.38;4999145;28;96770;-75
2021/07/10 08:58:05;;;;;;;5.22;3.42;;;36.10;69.10;;;41.44;48.46;101617.19;4997337;28;97125;-74
2021/07/10 09:00:41;;;;;;;6.18;2.00;;;35.90;69.00;;;40.95;49.29;101615.69;4997988;28;97712;-74
2021/07/10 09:03:10;;;;;;;2.90;2.28;;;35.60;69.50;;;38.77;53.52;101622.84;5016282;27;97871;-75
2021/07/10 09:05:41;;;;;;;2.95;1.42;;;34.90;69.90;;;37.81;55.44;101630.44;5001092;28;96750;-74
2021/07/10 09:08:21;;;;;;;2.15;1.40;;;34.20;70.80;;;37.78;54.63;101627.81;4999832;28;97802;-74
2021/07/10 09:10:59;;;;;;;4.63;1.88;;;33.60;71.60;;;36.56;57.20;101618.88;5001983;28;96874;-75
2021/07/10 09:13:37;;;;;;;4.00;2.55;;;33.20;72.00;;;35.67;58.62;101610.63;5013805;27;96937;-75
2021/07/10 09:16:11;;;;;;;2.33;1.75;;;32.60;72.70;;;35.06;59.81;101613.81;4998432;28;97549;-75
2021/07/10 09:18:47;;;;;;;3.10;1.85;;;32.10;72.90;;;35.24;58.58;101616.06;4998149;28;96845;-74
2021/07/10 09:21:39;;;;;;;3.70;1.98;;;31.70;73.30;;;35.22;58.30;101610.16;4999571;28;97035;-75
2021/07/10 09:24:14;;;;;;;4.03;2.10;;;31.40;73.20;;;35.56;57.14;101618.53;5001681;28;98727;-74
2021/07/10 09:26:51;;;;;;;6.63;2.47;;;31.30;73.80;;;34.93;58.25;101609.47;5001118;28;96774;-75
2021/07/10 09:29:24;;;;;;;4.80;1.75;;;31.10;73.60;;;34.65;58.25;101611.16;5018684;27;96927;-74
2021/07/10 09:31:58;;;;;;;8.85;2.65;;;30.90;73.60;;;34.22;58.91;101605.25;5034212;27;96907;-73
2021/07/10 09:34:37;;;;;;;4.13;2.70;;;30.70;73.50;;;34.00;59.23;101611.09;4998798;28;96960;-73
2021/07/10 09:37:13;;;;;;;4.25;2.30;;;30.50;73.90;;;35.15;56.53;101604.81;5000407;28;97247;-73
2021/07/10 09:39:58;;;;;;;1.27;1.17;;;30.30;74.00;;;37.14;51.64;101606.56;5001796;28;98091;-73
2021/07/10 09:42:34;;;;;;;4.97;1.55;;;30.60;73.90;;;37.50;50.20;101608.66;5007141;28;97375;-73
2021/07/10 09:45:08;;;;;;;11.38;2.80;;;31.00;73.50;;;38.21;49.03;101599.47;4998090;28;97043;-72
2021/07/10 09:47:38;;;;;;;1.85;1.58;;;31.30;73.10;;;37.51;51.14;101608.19;5000558;28;97028;-73
2021/07/10 09:50:10;;;;;;;2.90;1.88;;;31.50;72.90;;;36.89;52.57;101600.38;4999709;28;97346;-74
2021/07/10 09:52:41;;;;;;;2.55;1.42;;;31.60;72.40;;;39.22;47.35;101600.19;5000641;28;96805;-74
2021/07/10 09:55:15;;;;;;;0.65;0.65;;;31.80;72.40;;;40.03;46.06;101597.53;5004814;28;96999;-74
2021/07/10 09:57:46;;;;;;;3.10;1.52;;;32.10;72.60;;;40.15;46.50;101590.06;5017860;27;97578;-74
2021/07/10 10:00:20;;;;;;;1.45;0.63;;;32.50;72.40;;;39.80;47.66;101589.16;4999652;27;97652;-74
2021/07/10 10:02:53;;;;;;;0.70;0.70;;;32.70;72.10;;;39.49;48.54;101586.75;5002966;28;97293;-76
2021/07/10 10:05:29;;;;;;;1.13;1.00;;;32.80;72.20;;;39.19;49.91;101580.75;5001956;28;98421;-74
2021/07/10 10:08:04;;;;;;;2.25;1.10;;;32.90;72.60;;;38.89;51.02;101577.00;5001605;28;96957;-73
2021/07/10 10:10:36;;;;;;;0.35;0.35;;;33.00;72.50;;;38.32;52.04;101572.53;5004708;28;97793;-74
2021/07/10 10:13:14;;;;;;;1.15;0.98;;;33.00;72.60;;;37.08;54.70;101588.81;5003949;28;97236;-74
2021/07/10 10:15:47;;;;;;;0.40;0.40;;;32.90;71.90;;;36.43;55.87;101582.63;4999320;28;96706;-74
2021/07/10 10:18:20;;;;;;;2.92;1.45;;;32.50;71.90;;;35.73;57.01;101575.34;5000523;28;97690;-74
2021/07/10 10:20:51;;;;;;;9.77;1.52;;;32.20;72.00;;;35.39;57.41;101573.31;4998685;28;96843;-74
2021/07/10 10:23:23;;;;;;;2.35;0.93;;;31.90;72.30;;;35.69;56.49;101569.88;4988395;28;96852;-74
2021/07/10 10:25:52;;;;;;;1.80;1.08;;;31.70;72.70;;;35.63;56.53;101574.47;5000047;28;96900;-74